createdAt,value
2019-04-22T00:01:50.394Z,9.00
2019-04-22T00:04:32.200Z,9.10
2019-04-22T00:07:15.902Z,8.85
2019-04-22T00:09:53.453Z,9.67
2019-04-22T00:14:46.563Z,8.70
2019-04-22T00:17:30.665Z,8.73
2019-04-22T00:19:57.582Z,9.35
2019-04-22T00:22:27.404Z,8.90
2019-04-22T00:25:05.551Z,8.60
2019-04-22T00:27:35.803Z,9.18
2019-04-22T00:30:07.274Z,9.70
2019-04-22T00:32:36.567Z,10.03
2019-04-22T00:35:07.103Z,9.90
2019-04-22T00:37:43.718Z,10.75
2019-04-22T00:40:17.734Z,12.00
2019-04-22T00:42:46.947Z,11.00
2019-04-22T00:45:19.413Z,11.03
2019-04-22T00:47:43.833Z,12.07
2019-04-22T00:52:59.909Z,11.97
2019-04-22T00:55:24.781Z,11.68
2019-04-22T00:57:56.332Z,12.10
2019-04-22T01:00:27.785Z,11.80
2019-04-22T01:03:02.715Z,13.13
2019-04-22T01:05:32.672Z,12.90
2019-04-22T01:08:09.604Z,12.90
2019-04-22T01:10:32.398Z,12.20
2019-04-22T01:13:04.704Z,13.13
2019-04-22T01:15:33.906Z,12.50
2019-04-22T01:18:08.264Z,12.90
2019-04-22T01:23:03.838Z,13.30
2019-04-22T01:25:39.233Z,13.35
2019-04-22T01:28:00.914Z,13.70
2019-04-22T01:30:28.776Z,12.20
2019-04-22T01:32:53.906Z,12.73
2019-04-22T01:35:35.838Z,12.70
2019-04-22T01:38:07.911Z,13.70
2019-04-22T01:40:58.615Z,13.40
2019-04-22T01:43:25.014Z,13.40
2019-04-22T01:45:54.479Z,14.07
2019-04-22T01:48:26.852Z,13.55
2019-04-22T01:50:54.783Z,14.38
2019-04-22T01:53:27.133Z,14.60
2019-04-22T01:55:59.053Z,14.90
2019-04-22T01:58:23.454Z,14.78
2019-04-22T02:01:00.989Z,14.95
2019-04-22T02:03:33.323Z,15.20
2019-04-22T02:06:12.160Z,14.78
2019-04-22T02:08:45.399Z,16.15
2019-04-22T02:11:09.355Z,15.08
2019-04-22T02:13:36.644Z,15.40
2019-04-22T02:16:12.547Z,15.05
2019-04-22T02:18:50.710Z,14.80
2019-04-22T02:21:09.319Z,15.25
2019-04-22T02:23:47.085Z,15.73
2019-04-22T02:26:31.523Z,15.80
2019-04-22T02:28:55.976Z,15.90
2019-04-22T02:31:25.852Z,15.78
2019-04-22T02:51:30.104Z,18.07
2019-04-22T02:56:31.488Z,18.35
2019-04-22T03:01:36.549Z,18.90
2019-04-22T03:09:12.571Z,17.98
2019-04-22T03:11:47.653Z,18.57
2019-04-22T03:14:22.661Z,18.25
2019-04-22T03:21:46.944Z,18.50
2019-04-22T03:24:23.596Z,17.80
2019-04-22T03:27:00.691Z,19.55
2019-04-22T03:29:44.586Z,19.23
2019-04-22T03:37:32.375Z,19.92
2019-04-22T03:40:03.979Z,20.05
2019-04-22T03:42:09.780Z,18.93
2019-04-22T03:44:54.254Z,18.77
2019-04-22T03:47:33.593Z,19.33
2019-04-22T03:49:56.028Z,18.73
2019-04-22T03:57:48.939Z,19.10
2019-04-22T04:04:49.524Z,18.57
2019-04-22T04:07:40.558Z,19.55
2019-04-22T04:12:28.481Z,19.62
2019-04-22T04:17:36.895Z,18.10
2019-04-22T04:27:53.617Z,19.00
2019-04-22T04:35:23.899Z,18.43
2019-04-22T04:37:52.116Z,18.17
2019-04-22T04:40:25.072Z,19.00
2019-04-22T04:50:22.695Z,18.25
2019-04-22T04:56:29.681Z,18.67
2019-04-22T04:58:10.021Z,17.77
2019-04-22T05:02:58.386Z,17.67
2019-04-22T05:05:45.058Z,18.42
2019-04-22T05:10:44.879Z,19.00
2019-04-22T05:13:01.139Z,18.75
2019-04-22T05:20:42.966Z,17.50
2019-04-22T05:23:06.963Z,16.80
2019-04-22T05:25:53.505Z,17.52
2019-04-22T05:28:06.820Z,17.75
2019-04-22T05:30:58.979Z,15.95
2019-04-22T05:33:10.167Z,16.90
2019-04-22T05:35:37.858Z,17.15
2019-04-22T05:40:36.003Z,16.55
2019-04-22T05:43:16.348Z,15.85
2019-04-22T05:45:47.341Z,17.30
2019-04-22T05:48:23.147Z,16.20
2019-04-22T05:50:47.345Z,16.00
2019-04-22T05:53:14.950Z,17.10
2019-04-22T05:55:53.846Z,16.97
2019-04-22T05:58:22.517Z,16.10
2019-04-22T06:03:42.471Z,16.77
2019-04-22T06:06:12.017Z,14.90
2019-04-22T06:08:43.995Z,15.08
2019-04-22T06:11:17.149Z,14.83
2019-04-22T06:13:41.722Z,14.53
2019-04-22T06:16:18.229Z,15.57
2019-04-22T06:18:46.993Z,14.68
2019-04-22T06:21:22.310Z,14.70
2019-04-22T06:24:01.891Z,13.65
2019-04-22T06:26:31.194Z,14.40
2019-04-22T06:28:54.675Z,14.58
2019-04-22T06:31:28.152Z,14.68
2019-04-22T06:34:07.234Z,14.55
2019-04-22T06:36:29.532Z,14.85
2019-04-22T06:38:55.939Z,13.45
2019-04-22T06:41:33.271Z,15.08
2019-04-22T06:44:04.760Z,14.30
2019-04-22T06:46:37.835Z,14.60
2019-04-22T06:49:03.015Z,13.83
2019-04-22T06:51:32.486Z,13.38
2019-04-22T06:54:03.402Z,13.90
2019-04-22T06:56:41.309Z,14.00
2019-04-22T06:59:09.755Z,14.35
2019-04-22T07:01:55.059Z,13.43
2019-04-22T07:04:23.229Z,14.30
2019-04-22T07:06:44.807Z,14.23
2019-04-22T07:11:48.296Z,13.85
2019-04-22T07:14:09.295Z,15.32
2019-04-22T07:16:43.574Z,13.93
2019-04-22T07:19:20.656Z,14.30
2019-04-22T07:21:53.557Z,14.00
2019-04-22T07:26:50.792Z,13.35
2019-04-22T07:29:41.655Z,13.23
2019-04-22T07:31:56.377Z,13.67
2019-04-22T07:34:33.369Z,13.22
2019-04-22T07:37:10.988Z,13.60
2019-04-22T07:39:30.824Z,13.40
2019-04-22T07:42:10.721Z,13.40
2019-04-22T07:44:52.064Z,12.95
2019-04-22T07:47:15.205Z,13.15
2019-04-22T07:49:39.115Z,12.53
2019-04-22T07:52:09.755Z,13.10
2019-04-22T07:54:41.689Z,12.43
2019-04-22T08:00:05.554Z,12.60
2019-04-22T08:02:16.076Z,12.75
2019-04-22T08:05:03.720Z,12.30
2019-04-22T08:07:22.546Z,11.40
2019-04-22T08:12:19.128Z,12.68
2019-04-22T08:14:52.142Z,12.10
2019-04-22T08:17:50.853Z,13.08
2019-04-22T08:19:56.058Z,13.13
2019-04-22T08:22:21.394Z,12.60
2019-04-22T08:24:54.017Z,12.80
2019-04-22T08:27:22.571Z,11.65
2019-04-22T08:32:39.171Z,10.87
2019-04-22T08:35:11.262Z,11.53
2019-04-22T08:40:15.467Z,11.87
2019-04-22T08:42:53.365Z,11.48
2019-04-22T08:45:28.592Z,10.70
2019-04-22T08:47:41.587Z,11.00
2019-04-22T08:52:40.603Z,10.40
2019-04-22T08:55:20.841Z,10.80
2019-04-22T08:58:07.217Z,11.53
2019-04-22T09:00:17.371Z,9.80
2019-04-22T09:02:52.129Z,10.30
2019-04-22T09:05:37.115Z,9.43
2019-04-22T09:08:04.972Z,9.35
2019-04-22T09:10:24.388Z,9.38
2019-04-22T09:13:02.493Z,9.20
2019-04-22T09:29:30.393Z,8.50
2019-04-22T09:32:03.560Z,8.23
2019-04-22T09:34:28.255Z,7.42
2019-04-22T09:37:05.987Z,6.80
2019-04-22T09:42:21.930Z,6.80
2019-04-22T09:44:36.570Z,7.07
2019-04-22T09:47:06.210Z,6.60
2019-04-22T09:49:44.546Z,6.40
2019-04-22T09:54:49.567Z,6.53
2019-04-22T09:57:12.007Z,6.40
2019-04-22T09:59:43.594Z,6.70
2019-04-22T10:04:48.266Z,6.25
2019-04-22T10:07:15.878Z,6.00
2019-04-22T10:12:19.251Z,6.20
2019-04-22T10:14:49.485Z,5.62
2019-04-22T10:17:23.771Z,6.22
2019-04-22T10:19:57.874Z,6.20
2019-04-22T10:22:27.979Z,6.30
2019-04-22T10:24:56.890Z,5.80
2019-04-22T10:27:26.141Z,5.87
2019-04-22T10:30:08.874Z,6.83
2019-04-22T10:32:27.935Z,6.50
2019-04-22T10:34:48.029Z,6.20
2019-04-22T10:37:17.017Z,6.70
2019-04-22T10:39:52.967Z,6.45
2019-04-22T10:42:17.398Z,5.80
2019-04-22T10:44:48.483Z,6.85
2019-04-22T10:47:20.070Z,6.90
2019-04-22T10:49:49.618Z,6.80
2019-04-22T10:52:19.143Z,6.60
2019-04-22T10:54:49.494Z,6.80
2019-04-22T10:57:20.129Z,6.90
2019-04-22T10:59:50.384Z,7.80
2019-04-22T11:02:21.490Z,6.75
2019-04-22T11:04:52.403Z,6.83
2019-04-22T11:07:31.090Z,7.00
2019-04-22T11:10:02.399Z,5.92
2019-04-22T11:12:28.292Z,6.80
2019-04-22T11:14:55.963Z,7.50
2019-04-22T11:17:26.451Z,6.60
2019-04-22T11:19:57.459Z,6.22
2019-04-22T11:22:31.328Z,6.50
2019-04-22T11:24:59.814Z,6.67
2019-04-22T11:27:30.871Z,7.20
2019-04-22T11:30:01.841Z,7.00
2019-04-22T11:32:32.766Z,6.25
2019-04-22T11:35:03.664Z,7.28
2019-04-22T11:37:34.782Z,6.00
2019-04-22T11:40:15.768Z,6.80
2019-04-22T11:42:36.394Z,6.20
2019-04-22T11:45:06.297Z,6.30
2019-04-22T11:47:37.251Z,6.75
2019-04-22T11:50:08.078Z,6.40
2019-04-22T11:52:37.699Z,6.20
2019-04-22T11:55:08.689Z,6.25
2019-04-22T11:57:39.217Z,5.67
2019-04-22T12:00:10.649Z,6.17
2019-04-22T12:02:41.025Z,5.80
2019-04-22T12:05:12.279Z,5.42
2019-04-22T12:07:42.910Z,4.83
2019-04-22T12:10:22.830Z,4.85
2019-04-22T12:12:47.756Z,5.70
2019-04-22T12:15:16.909Z,5.17
2019-04-22T12:17:46.553Z,5.30
2019-04-22T12:20:18.409Z,6.28
2019-04-22T12:22:49.164Z,6.10
2019-04-22T12:25:31.864Z,5.43
2019-04-22T12:27:52.832Z,5.30
2019-04-22T12:30:23.638Z,5.62
2019-04-22T12:32:54.554Z,5.20
2019-04-22T12:35:26.289Z,5.28
2019-04-22T12:38:01.521Z,5.45
2019-04-22T12:40:39.518Z,5.37
2019-04-22T12:42:59.474Z,5.37
2019-04-22T12:45:30.080Z,4.78
2019-04-22T12:48:00.066Z,5.07
2019-04-22T12:50:33.860Z,5.80
2019-04-22T12:53:05.226Z,5.08
2019-04-22T12:55:32.422Z,5.40
2019-04-22T12:58:02.838Z,5.45
2019-04-22T13:00:34.331Z,5.40
2019-04-22T13:03:05.226Z,5.62
2019-04-22T13:05:35.321Z,4.60
2019-04-22T13:08:05.661Z,4.90
2019-04-22T13:10:48.679Z,4.78
2019-04-22T13:13:07.205Z,5.08
2019-04-22T13:15:37.043Z,4.10
2019-04-22T13:18:16.940Z,4.60
2019-04-22T13:20:38.672Z,4.33
2019-04-22T13:23:09.501Z,4.90
2019-04-22T13:25:40.885Z,4.92
2019-04-22T13:28:13.193Z,5.40
2019-04-22T13:30:44.341Z,4.92
2019-04-22T13:33:14.854Z,4.80
2019-04-22T13:35:45.730Z,4.70
2019-04-22T13:38:17.157Z,4.95
2019-04-22T13:41:00.648Z,5.10
2019-04-22T13:43:19.156Z,4.95
2019-04-22T13:45:49.866Z,4.65
2019-04-22T13:48:38.198Z,5.05
2019-04-22T13:51:24.077Z,4.80
2019-04-22T13:54:13.693Z,4.72
2019-04-22T13:56:15.571Z,4.67
2019-04-22T13:58:40.974Z,4.85
2019-04-22T14:01:00.706Z,4.92
2019-04-22T14:03:52.295Z,5.00
2019-04-22T14:06:22.683Z,4.90
2019-04-22T14:08:53.426Z,4.70
2019-04-22T14:11:34.556Z,5.00
2019-04-22T14:13:54.284Z,4.87
2019-04-22T14:16:24.818Z,4.70
2019-04-22T14:18:55.914Z,4.58
2019-04-22T14:21:27.021Z,4.60
2019-04-22T14:23:56.602Z,4.93
2019-04-22T14:26:28.387Z,4.30
2019-04-22T14:28:57.608Z,4.90
2019-04-22T14:31:28.505Z,4.10
2019-04-22T14:34:01.820Z,4.08
2019-04-22T14:36:29.795Z,4.25
2019-04-22T14:38:59.738Z,4.40
2019-04-22T14:41:42.826Z,4.75
2019-04-22T14:45:06.616Z,5.15
2019-04-22T14:47:05.731Z,4.78
2019-04-22T14:49:31.528Z,3.80
2019-04-22T14:52:02.291Z,3.47
2019-04-22T14:54:24.254Z,3.75
2019-04-22T14:56:38.290Z,3.20
2019-04-22T14:59:09.188Z,3.30
2019-04-22T15:01:41.430Z,3.10
2019-04-22T15:04:10.976Z,3.30
2019-04-22T15:06:43.467Z,3.45
2019-04-22T15:09:12.214Z,3.60
2019-04-22T15:11:54.820Z,3.85
2019-04-22T15:14:13.013Z,4.30
2019-04-22T15:17:11.084Z,4.50
2019-04-22T15:19:49.730Z,3.47
2019-04-22T15:22:20.797Z,4.10
2019-04-22T15:24:50.488Z,3.52
2019-04-22T15:27:20.326Z,3.47
2019-04-22T15:29:51.621Z,2.83
2019-04-22T15:32:21.313Z,3.00
2019-04-22T15:34:51.156Z,3.22
2019-04-22T15:37:22.207Z,3.03
2019-04-22T15:39:53.811Z,3.40
2019-04-22T15:42:28.858Z,3.00
2019-04-22T15:44:55.850Z,2.83
2019-04-22T15:47:26.905Z,3.00
2019-04-22T15:49:58.353Z,2.60
2019-04-22T15:52:31.957Z,2.70
2019-04-22T15:55:00.660Z,2.77
2019-04-22T15:57:30.835Z,3.00
2019-04-22T16:00:14.655Z,2.83
2019-04-22T16:02:31.858Z,2.90
2019-04-22T16:05:02.726Z,2.95
2019-04-22T16:07:33.871Z,2.80
2019-04-22T16:10:05.889Z,2.77
2019-04-22T16:12:45.560Z,2.27
2019-04-22T16:15:09.604Z,2.40
2019-04-22T16:17:38.501Z,2.65
2019-04-22T16:20:09.112Z,2.40
2019-04-22T16:22:57.092Z,2.50
2019-04-22T16:25:45.240Z,2.00
2019-04-22T16:28:15.553Z,2.30
2019-04-22T16:30:45.505Z,2.20
2019-04-22T16:33:15.333Z,2.30
2019-04-22T16:35:45.058Z,2.50
2019-04-22T16:38:15.120Z,2.30
2019-04-22T16:40:45.058Z,1.92
2019-04-22T16:43:14.643Z,1.92
2019-04-22T16:45:45.493Z,1.95
2019-04-22T16:48:16.063Z,2.02
2019-04-22T16:50:48.652Z,1.90
2019-04-22T16:53:16.987Z,2.15
2019-04-22T16:55:46.678Z,2.50
2019-04-22T16:58:18.799Z,2.50
2019-04-22T17:00:49.620Z,2.20
2019-04-22T17:03:38.724Z,2.10
2019-04-22T17:06:25.601Z,1.90
2019-04-22T17:08:55.400Z,1.93
2019-04-22T17:11:25.601Z,1.53
2019-04-22T17:13:55.348Z,1.45
2019-04-22T17:16:26.257Z,1.60
2019-04-22T17:18:56.471Z,2.00
2019-04-22T17:21:26.010Z,1.60
2019-04-22T17:23:55.967Z,3.60
2019-04-22T17:26:26.476Z,1.47
2019-04-22T17:28:57.583Z,1.63
2019-04-22T17:31:28.862Z,1.72
2019-04-22T17:33:58.992Z,1.67
2019-04-22T17:36:29.825Z,1.70
2019-04-22T17:39:14.592Z,1.60
2019-04-22T17:41:53.968Z,1.60
2019-04-22T17:44:41.423Z,1.50
2019-04-22T17:47:04.931Z,1.80
2019-04-22T17:50:08.189Z,1.72
2019-04-22T17:54:50.161Z,1.80
2019-04-22T17:57:23.951Z,1.98
2019-04-22T17:59:50.533Z,2.20
2019-04-22T18:02:24.929Z,2.10
2019-04-22T18:04:46.117Z,2.17
2019-04-22T18:10:24.215Z,1.80
2019-04-22T18:12:38.567Z,1.77
2019-04-22T18:15:04.006Z,1.82
2019-04-22T18:17:35.511Z,1.90
2019-04-22T18:19:58.255Z,2.17
2019-04-22T18:22:29.371Z,1.77
2019-04-22T18:25:04.245Z,1.80
2019-04-22T18:30:03.954Z,1.77
2019-04-22T18:32:42.422Z,1.80
2019-04-22T18:35:11.477Z,2.00
2019-04-22T18:37:43.778Z,2.20
2019-04-22T18:40:15.118Z,1.80
2019-04-22T18:42:53.567Z,2.00
2019-04-22T18:45:35.808Z,2.20
2019-04-22T18:47:43.906Z,2.10
2019-04-22T18:50:30.711Z,2.00
2019-04-22T18:53:20.200Z,2.50
2019-04-22T18:55:41.412Z,1.90
2019-04-22T18:58:09.065Z,2.30
2019-04-22T19:00:34.235Z,2.70
2019-04-22T19:03:13.494Z,2.10
2019-04-22T19:05:55.810Z,2.70
2019-04-22T19:08:28.884Z,2.60
2019-04-22T19:11:04.979Z,2.70
2019-04-22T19:16:17.207Z,2.30
2019-04-22T19:18:33.643Z,2.30
2019-04-22T19:21:07.942Z,2.33
2019-04-22T19:23:31.948Z,2.10
2019-04-22T19:26:08.316Z,2.40
2019-04-22T19:28:41.885Z,2.60
2019-04-22T19:31:13.792Z,2.50
2019-04-22T19:33:44.443Z,2.30
2019-04-22T19:36:14.671Z,2.30
2019-04-22T19:38:31.265Z,2.40
2019-04-22T19:41:23.153Z,2.30
2019-04-22T19:43:46.861Z,2.50
2019-04-22T19:46:16.732Z,2.70
2019-04-22T19:48:50.128Z,2.40
2019-04-22T19:51:23.619Z,2.63
2019-04-22T19:53:51.315Z,2.77
2019-04-22T19:56:17.503Z,2.67
2019-04-22T19:58:47.694Z,2.58
2019-04-22T20:01:44.108Z,3.20
2019-04-22T20:04:47.984Z,2.80
2019-04-22T20:07:08.505Z,2.67
2019-04-22T20:09:47.852Z,2.40
2019-04-22T20:12:18.982Z,2.47
2019-04-22T20:14:48.102Z,2.30
2019-04-22T20:17:24.487Z,2.60
2019-04-22T20:19:55.343Z,2.30
2019-04-22T20:22:17.680Z,2.50
2019-04-22T20:24:43.497Z,2.40
2019-04-22T20:27:28.525Z,2.50
2019-04-22T20:30:02.392Z,2.47
2019-04-22T20:32:26.410Z,3.20
2019-04-22T20:35:03.011Z,2.50
2019-04-22T20:37:35.564Z,2.80
2019-04-22T20:40:02.424Z,2.40
2019-04-22T20:45:11.815Z,2.40
2019-04-22T20:47:30.480Z,3.00
2019-04-22T20:50:05.387Z,2.77
2019-04-22T20:52:50.238Z,2.45
2019-04-22T20:55:07.990Z,2.95
2019-04-22T20:57:50.029Z,3.00
2019-04-22T21:00:11.516Z,2.80
2019-04-22T21:02:38.808Z,2.50
2019-04-22T21:05:03.251Z,3.00
2019-04-22T21:07:47.925Z,2.90
2019-04-22T21:10:17.282Z,2.85
2019-04-22T21:12:38.663Z,2.90
2019-04-22T21:15:29.939Z,3.10
2019-04-22T21:17:53.501Z,2.87
2019-04-22T21:20:33.404Z,3.40
2019-04-22T21:22:58.213Z,3.65
2019-04-22T21:25:20.575Z,3.00
2019-04-22T21:28:08.099Z,3.45
2019-04-22T21:30:31.995Z,3.30
2019-04-22T21:32:58.311Z,3.50
2019-04-22T21:35:48.149Z,3.15
2019-04-22T21:38:08.436Z,3.40
2019-04-22T21:40:38.799Z,3.65
2019-04-22T21:43:12.310Z,3.50
2019-04-22T21:45:31.035Z,4.03
2019-04-22T21:48:20.595Z,3.90
2019-04-22T21:50:50.188Z,3.90
2019-04-22T21:53:22.745Z,3.80
2019-04-22T21:55:58.538Z,4.90
2019-04-22T21:58:24.516Z,4.60
2019-04-22T22:01:14.431Z,4.45
2019-04-22T22:03:38.144Z,4.60
2019-04-22T22:06:04.483Z,3.90
2019-04-22T22:08:45.767Z,4.58
2019-04-22T22:11:13.373Z,4.78
2019-04-22T22:13:48.794Z,4.75
2019-04-22T22:16:12.808Z,4.80
2019-04-22T22:18:52.920Z,4.72
2019-04-22T22:21:42.104Z,4.90
2019-04-22T22:23:55.883Z,4.75
2019-04-22T22:26:15.252Z,5.00
2019-04-22T22:31:28.633Z,4.95
2019-04-22T22:33:58.010Z,4.80
2019-04-22T22:36:26.401Z,5.30
2019-04-22T22:38:56.151Z,4.80
2019-04-22T22:41:10.133Z,5.10
2019-04-22T22:43:45.321Z,5.22
2019-04-22T22:46:24.692Z,5.15
2019-04-22T22:49:05.133Z,5.80
2019-04-22T22:51:39.886Z,4.97
2019-04-22T22:54:06.358Z,5.75
2019-04-22T22:56:42.374Z,5.60
2019-04-22T22:59:08.163Z,5.50
2019-04-22T23:01:39.698Z,5.20
2019-04-22T23:04:21.046Z,5.67
2019-04-22T23:06:48.379Z,5.92
2019-04-22T23:09:15.399Z,5.83
2019-04-22T23:14:23.348Z,5.87
2019-04-22T23:16:37.853Z,6.40
2019-04-22T23:19:02.233Z,5.80
2019-04-22T23:21:39.707Z,5.93
2019-04-22T23:24:37.795Z,5.72
2019-04-22T23:27:19.340Z,6.03
2019-04-22T23:30:06.432Z,6.40
2019-04-22T23:32:38.856Z,6.75
2019-04-22T23:35:22.918Z,5.70
2019-04-22T23:37:52.635Z,6.80
2019-04-22T23:43:00.204Z,6.70
2019-04-22T23:45:33.264Z,6.50
2019-04-22T23:48:00.935Z,6.20
2019-04-22T23:50:38.877Z,6.30
2019-04-22T23:53:42.718Z,6.85
2019-04-22T23:56:01.747Z,7.00
2019-04-22T23:58:47.665Z,7.22
